sensor_id;sensor_type;location;lat;lon;timestamp;temperature;humidity
5023;DHT22;2530;47.990;7.866;2023-02-08T00:01:15;0.40;78.80
5023;DHT22;2530;47.990;7.866;2023-02-08T00:03:41;0.40;78.30
5023;DHT22;2530;47.990;7.866;2023-02-08T00:06:07;0.50;82.20
5023;DHT22;2530;47.990;7.866;2023-02-08T00:08:34;0.30;79.50
5023;DHT22;2530;47.990;7.866;2023-02-08T00:11:00;0.70;74.70
5023;DHT22;2530;47.990;7.866;2023-02-08T00:13:26;0.30;78.30
5023;DHT22;2530;47.990;7.866;2023-02-08T00:15:53;0.30;74.20
5023;DHT22;2530;47.990;7.866;2023-02-08T00:18:19;0.30;72.30
5023;DHT22;2530;47.990;7.866;2023-02-08T00:20:45;0.30;71.10
5023;DHT22;2530;47.990;7.866;2023-02-08T00:23:11;0.40;69.30
5023;DHT22;2530;47.990;7.866;2023-02-08T00:25:38;0.30;67.60
5023;DHT22;2530;47.990;7.866;2023-02-08T00:28:04;0.40;66.20
5023;DHT22;2530;47.990;7.866;2023-02-08T00:30:31;0.40;64.50
5023;DHT22;2530;47.990;7.866;2023-02-08T00:32:56;0.30;65.70
5023;DHT22;2530;47.990;7.866;2023-02-08T00:35:22;0.40;69.40
5023;DHT22;2530;47.990;7.866;2023-02-08T00:37:48;0.30;66.30
5023;DHT22;2530;47.990;7.866;2023-02-08T00:40:13;0.20;59.90
5023;DHT22;2530;47.990;7.866;2023-02-08T00:42:39;0.30;61.30
5023;DHT22;2530;47.990;7.866;2023-02-08T00:45:04;0.30;68.10
5023;DHT22;2530;47.990;7.866;2023-02-08T00:47:30;0.30;59.40
5023;DHT22;2530;47.990;7.866;2023-02-08T00:49:55;0.30;59.80
5023;DHT22;2530;47.990;7.866;2023-02-08T00:52:21;0.40;64.30
5023;DHT22;2530;47.990;7.866;2023-02-08T00:54:47;0.10;58.00
5023;DHT22;2530;47.990;7.866;2023-02-08T00:57:12;0.20;58.40
5023;DHT22;2530;47.990;7.866;2023-02-08T00:59:38;0.20;68.10
5023;DHT22;2530;47.990;7.866;2023-02-08T01:02:04;0.10;64.90
5023;DHT22;2530;47.990;7.866;2023-02-08T01:04:29;0.00;58.70
5023;DHT22;2530;47.990;7.866;2023-02-08T01:06:55;0.00;58.00
5023;DHT22;2530;47.990;7.866;2023-02-08T01:09:20;0.00;65.50
5023;DHT22;2530;47.990;7.866;2023-02-08T01:11:46;0.00;56.90
5023;DHT22;2530;47.990;7.866;2023-02-08T01:14:11;-0.10;57.30
5023;DHT22;2530;47.990;7.866;2023-02-08T01:16:37;0.00;60.90
5023;DHT22;2530;47.990;7.866;2023-02-08T01:19:04;-0.10;59.40
5023;DHT22;2530;47.990;7.866;2023-02-08T01:21:32;0.00;53.70
5023;DHT22;2530;47.990;7.866;2023-02-08T01:23:58;0.00;56.10
5023;DHT22;2530;47.990;7.866;2023-02-08T01:26:24;-0.10;56.10
5023;DHT22;2530;47.990;7.866;2023-02-08T01:28:50;0.00;59.40
5023;DHT22;2530;47.990;7.866;2023-02-08T01:31:22;-0.20;56.20
5023;DHT22;2530;47.990;7.866;2023-02-08T01:33:48;-0.10;51.10
5023;DHT22;2530;47.990;7.866;2023-02-08T01:36:14;-0.20;49.90
5023;DHT22;2530;47.990;7.866;2023-02-08T01:38:41;-0.20;48.40
5023;DHT22;2530;47.990;7.866;2023-02-08T01:41:13;-0.20;51.00
5023;DHT22;2530;47.990;7.866;2023-02-08T01:46:35;-0.10;43.10
5023;DHT22;2530;47.990;7.866;2023-02-08T01:51:35;0.00;45.30
5023;DHT22;2530;47.990;7.866;2023-02-08T01:54:04;0.10;49.30
5023;DHT22;2530;47.990;7.866;2023-02-08T01:56:34;0.40;51.60
5023;DHT22;2530;47.990;7.866;2023-02-08T01:59:02;0.00;49.80
5023;DHT22;2530;47.990;7.866;2023-02-08T02:01:30;-0.40;46.90
5023;DHT22;2530;47.990;7.866;2023-02-08T02:04:01;-0.50;48.60
5023;DHT22;2530;47.990;7.866;2023-02-08T02:06:32;-0.50;50.10
5023;DHT22;2530;47.990;7.866;2023-02-08T02:09:15;-0.50;53.30
5023;DHT22;2530;47.990;7.866;2023-02-08T02:11:42;-0.50;52.50
5023;DHT22;2530;47.990;7.866;2023-02-08T02:14:09;-0.70;57.10
5023;DHT22;2530;47.990;7.866;2023-02-08T02:16:35;-0.60;58.20
5023;DHT22;2530;47.990;7.866;2023-02-08T02:19:01;-0.40;65.40
5023;DHT22;2530;47.990;7.866;2023-02-08T02:27:00;-0.50;55.10
5023;DHT22;2530;47.990;7.866;2023-02-08T02:37:49;-0.90;70.40
5023;DHT22;2530;47.990;7.866;2023-02-08T02:46:54;-0.80;85.80
5023;DHT22;2530;47.990;7.866;2023-02-08T02:49:06;-0.70;94.00
5023;DHT22;2530;47.990;7.866;2023-02-08T02:51:41;-0.70;97.30
5023;DHT22;2530;47.990;7.866;2023-02-08T02:54:17;-0.60;99.90
5023;DHT22;2530;47.990;7.866;2023-02-08T02:56:47;-1.00;99.90
5023;DHT22;2530;47.990;7.866;2023-02-08T02:59:14;-1.10;99.90
5023;DHT22;2530;47.990;7.866;2023-02-08T03:01:42;-0.90;99.90
5023;DHT22;2530;47.990;7.866;2023-02-08T03:10:11;-1.10;99.90
5023;DHT22;2530;47.990;7.866;2023-02-08T03:16:01;-1.20;99.90
5023;DHT22;2530;47.990;7.866;2023-02-08T03:18:48;-1.30;99.90
5023;DHT22;2530;47.990;7.866;2023-02-08T03:24:19;-1.30;99.90
5023;DHT22;2530;47.990;7.866;2023-02-08T03:27:03;-1.00;99.90
5023;DHT22;2530;47.990;7.866;2023-02-08T03:29:53;-1.30;99.90
5023;DHT22;2530;47.990;7.866;2023-02-08T03:32:24;-1.50;99.90
5023;DHT22;2530;47.990;7.866;2023-02-08T03:37:44;-1.60;99.90
5023;DHT22;2530;47.990;7.866;2023-02-08T03:43:00;-1.50;99.90
5023;DHT22;2530;47.990;7.866;2023-02-08T03:45:33;-1.50;99.90
5023;DHT22;2530;47.990;7.866;2023-02-08T03:48:04;-1.50;99.90
5023;DHT22;2530;47.990;7.866;2023-02-08T03:50:32;-1.60;99.90
5023;DHT22;2530;47.990;7.866;2023-02-08T03:52:59;-1.80;99.90
5023;DHT22;2530;47.990;7.866;2023-02-08T03:55:28;-1.50;99.90
5023;DHT22;2530;47.990;7.866;2023-02-08T04:00:36;-1.70;99.90
5023;DHT22;2530;47.990;7.866;2023-02-08T04:03:29;-1.80;99.90
5023;DHT22;2530;47.990;7.866;2023-02-08T04:05:55;-1.80;99.90
5023;DHT22;2530;47.990;7.866;2023-02-08T04:08:21;-1.80;99.90
5023;DHT22;2530;47.990;7.866;2023-02-08T04:10:47;-1.80;99.90
5023;DHT22;2530;47.990;7.866;2023-02-08T04:13:12;-1.80;99.90
5023;DHT22;2530;47.990;7.866;2023-02-08T04:15:38;-1.90;99.90
5023;DHT22;2530;47.990;7.866;2023-02-08T04:18:04;-2.20;99.90
5023;DHT22;2530;47.990;7.866;2023-02-08T04:20:30;-2.20;99.90
5023;DHT22;2530;47.990;7.866;2023-02-08T04:22:55;-1.90;99.90
5023;DHT22;2530;47.990;7.866;2023-02-08T04:25:21;-2.20;99.90
5023;DHT22;2530;47.990;7.866;2023-02-08T04:27:46;-2.10;99.90
5023;DHT22;2530;47.990;7.866;2023-02-08T04:30:12;-1.80;99.90
5023;DHT22;2530;47.990;7.866;2023-02-08T04:32:38;-2.10;99.90
5023;DHT22;2530;47.990;7.866;2023-02-08T04:35:04;-2.20;99.90
5023;DHT22;2530;47.990;7.866;2023-02-08T04:37:30;-2.10;99.90
5023;DHT22;2530;47.990;7.866;2023-02-08T04:39:55;-2.30;99.90
5023;DHT22;2530;47.990;7.866;2023-02-08T04:42:21;-2.10;99.90
5023;DHT22;2530;47.990;7.866;2023-02-08T04:44:47;-2.20;99.90
5023;DHT22;2530;47.990;7.866;2023-02-08T04:47:12;-2.10;99.90
5023;DHT22;2530;47.990;7.866;2023-02-08T04:49:38;-2.00;99.90
5023;DHT22;2530;47.990;7.866;2023-02-08T04:52:03;-2.10;99.90
5023;DHT22;2530;47.990;7.866;2023-02-08T04:54:29;-3.20;99.90
5023;DHT22;2530;47.990;7.866;2023-02-08T04:56:55;-1.80;99.90
5023;DHT22;2530;47.990;7.866;2023-02-08T04:59:20;-1.60;99.90
5023;DHT22;2530;47.990;7.866;2023-02-08T05:01:46;-2.50;99.90
5023;DHT22;2530;47.990;7.866;2023-02-08T05:04:12;-2.30;99.90
5023;DHT22;2530;47.990;7.866;2023-02-08T05:06:37;-2.50;99.90
5023;DHT22;2530;47.990;7.866;2023-02-08T05:09:06;-2.00;99.90
5023;DHT22;2530;47.990;7.866;2023-02-08T05:11:32;-2.30;99.90
5023;DHT22;2530;47.990;7.866;2023-02-08T05:13:57;-2.50;99.90
5023;DHT22;2530;47.990;7.866;2023-02-08T05:16:23;-2.40;99.90
5023;DHT22;2530;47.990;7.866;2023-02-08T05:18:48;-2.40;99.90
5023;DHT22;2530;47.990;7.866;2023-02-08T05:21:14;-2.40;99.90
5023;DHT22;2530;47.990;7.866;2023-02-08T05:23:39;-2.40;99.90
5023;DHT22;2530;47.990;7.866;2023-02-08T05:26:09;-2.00;99.90
5023;DHT22;2530;47.990;7.866;2023-02-08T05:28:36;-2.30;99.90
5023;DHT22;2530;47.990;7.866;2023-02-08T05:31:22;-2.40;99.90
5023;DHT22;2530;47.990;7.866;2023-02-08T05:33:49;-2.40;99.90
5023;DHT22;2530;47.990;7.866;2023-02-08T05:36:15;-2.40;99.90
5023;DHT22;2530;47.990;7.866;2023-02-08T05:38:41;-2.50;99.90
5023;DHT22;2530;47.990;7.866;2023-02-08T05:41:07;-2.60;99.90
5023;DHT22;2530;47.990;7.866;2023-02-08T05:43:32;-2.60;99.90
5023;DHT22;2530;47.990;7.866;2023-02-08T05:45:58;-2.50;99.90
5023;DHT22;2530;47.990;7.866;2023-02-08T05:48:23;-2.50;99.90
5023;DHT22;2530;47.990;7.866;2023-02-08T05:50:49;-2.50;99.90
5023;DHT22;2530;47.990;7.866;2023-02-08T05:53:14;-2.30;99.90
5023;DHT22;2530;47.990;7.866;2023-02-08T05:55:43;-2.40;99.90
5023;DHT22;2530;47.990;7.866;2023-02-08T05:58:10;-2.10;99.90
5023;DHT22;2530;47.990;7.866;2023-02-08T06:00:36;-2.40;99.90
5023;DHT22;2530;47.990;7.866;2023-02-08T06:03:01;-2.50;99.90
5023;DHT22;2530;47.990;7.866;2023-02-08T06:05:27;-2.70;99.90
5023;DHT22;2530;47.990;7.866;2023-02-08T06:07:52;-2.60;99.90
5023;DHT22;2530;47.990;7.866;2023-02-08T06:10:18;-2.70;99.90
5023;DHT22;2530;47.990;7.866;2023-02-08T06:12:43;-2.60;99.90
5023;DHT22;2530;47.990;7.866;2023-02-08T06:15:09;-2.50;99.90
5023;DHT22;2530;47.990;7.866;2023-02-08T06:17:35;-2.80;99.90
5023;DHT22;2530;47.990;7.866;2023-02-08T06:20:00;-2.30;99.90
5023;DHT22;2530;47.990;7.866;2023-02-08T06:22:26;-2.10;99.90
5023;DHT22;2530;47.990;7.866;2023-02-08T06:24:51;-2.40;99.90
5023;DHT22;2530;47.990;7.866;2023-02-08T06:27:17;-2.50;99.90
5023;DHT22;2530;47.990;7.866;2023-02-08T06:29:42;-2.70;99.90
5023;DHT22;2530;47.990;7.866;2023-02-08T06:32:08;-2.40;99.90
5023;DHT22;2530;47.990;7.866;2023-02-08T06:34:33;-2.50;99.90
5023;DHT22;2530;47.990;7.866;2023-02-08T06:36:59;-2.40;99.90
5023;DHT22;2530;47.990;7.866;2023-02-08T06:39:26;-2.60;99.90
5023;DHT22;2530;47.990;7.866;2023-02-08T06:41:52;-2.50;99.90
5023;DHT22;2530;47.990;7.866;2023-02-08T06:44:18;-2.50;99.90
5023;DHT22;2530;47.990;7.866;2023-02-08T06:46:43;-2.50;99.90
5023;DHT22;2530;47.990;7.866;2023-02-08T06:49:10;-2.50;99.90
5023;DHT22;2530;47.990;7.866;2023-02-08T06:51:35;-2.20;99.90
5023;DHT22;2530;47.990;7.866;2023-02-08T06:54:01;-2.50;99.90
5023;DHT22;2530;47.990;7.866;2023-02-08T06:56:26;-2.40;99.90
5023;DHT22;2530;47.990;7.866;2023-02-08T06:58:52;-2.20;99.90
5023;DHT22;2530;47.990;7.866;2023-02-08T07:01:17;-2.30;99.90
5023;DHT22;2530;47.990;7.866;2023-02-08T07:03:43;-2.40;99.90
5023;DHT22;2530;47.990;7.866;2023-02-08T07:06:13;-2.50;99.90
5023;DHT22;2530;47.990;7.866;2023-02-08T07:08:38;-2.40;99.90
5023;DHT22;2530;47.990;7.866;2023-02-08T07:11:08;-2.10;99.90
5023;DHT22;2530;47.990;7.866;2023-02-08T07:13:35;-2.10;99.90
5023;DHT22;2530;47.990;7.866;2023-02-08T07:16:01;-2.20;99.90
5023;DHT22;2530;47.990;7.866;2023-02-08T07:18:27;-2.40;99.90
5023;DHT22;2530;47.990;7.866;2023-02-08T07:20:52;-2.40;99.90
5023;DHT22;2530;47.990;7.866;2023-02-08T07:23:18;-2.20;99.90
5023;DHT22;2530;47.990;7.866;2023-02-08T07:25:43;-2.10;99.90
5023;DHT22;2530;47.990;7.866;2023-02-08T07:28:10;-2.10;99.90
5023;DHT22;2530;47.990;7.866;2023-02-08T07:30:35;-2.10;99.90
5023;DHT22;2530;47.990;7.866;2023-02-08T07:33:01;-2.20;99.90
5023;DHT22;2530;47.990;7.866;2023-02-08T07:35:26;-2.10;99.90
5023;DHT22;2530;47.990;7.866;2023-02-08T07:37:52;-2.20;99.90
5023;DHT22;2530;47.990;7.866;2023-02-08T07:40:18;-2.20;99.90
5023;DHT22;2530;47.990;7.866;2023-02-08T07:42:43;-2.20;99.90
5023;DHT22;2530;47.990;7.866;2023-02-08T07:45:09;-2.00;99.90
5023;DHT22;2530;47.990;7.866;2023-02-08T07:47:34;-2.10;99.90
5023;DHT22;2530;47.990;7.866;2023-02-08T07:50:00;-1.80;99.90
5023;DHT22;2530;47.990;7.866;2023-02-08T07:52:25;-1.70;99.90
5023;DHT22;2530;47.990;7.866;2023-02-08T07:54:51;-1.90;99.90
5023;DHT22;2530;47.990;7.866;2023-02-08T07:57:16;-1.90;99.90
5023;DHT22;2530;47.990;7.866;2023-02-08T07:59:46;-1.80;99.90
5023;DHT22;2530;47.990;7.866;2023-02-08T08:02:13;-1.90;99.90
5023;DHT22;2530;47.990;7.866;2023-02-08T08:04:39;-1.40;99.90
5023;DHT22;2530;47.990;7.866;2023-02-08T08:07:04;-1.70;99.90
5023;DHT22;2530;47.990;7.866;2023-02-08T08:09:30;-1.70;99.90
5023;DHT22;2530;47.990;7.866;2023-02-08T08:11:56;-1.80;99.90
5023;DHT22;2530;47.990;7.866;2023-02-08T08:14:21;-1.70;99.90
5023;DHT22;2530;47.990;7.866;2023-02-08T08:16:47;-1.70;99.90
5023;DHT22;2530;47.990;7.866;2023-02-08T08:19:12;-1.80;99.90
5023;DHT22;2530;47.990;7.866;2023-02-08T08:21:38;-1.50;99.90
5023;DHT22;2530;47.990;7.866;2023-02-08T08:24:03;-1.60;99.90
5023;DHT22;2530;47.990;7.866;2023-02-08T08:26:29;-1.50;99.90
5023;DHT22;2530;47.990;7.866;2023-02-08T08:28:54;-1.30;99.90
5023;DHT22;2530;47.990;7.866;2023-02-08T08:31:20;-1.40;99.90
5023;DHT22;2530;47.990;7.866;2023-02-08T08:33:46;-1.40;99.90
5023;DHT22;2530;47.990;7.866;2023-02-08T08:36:12;-1.50;99.90
5023;DHT22;2530;47.990;7.866;2023-02-08T08:38:38;-1.60;99.90
5023;DHT22;2530;47.990;7.866;2023-02-08T08:41:14;-1.40;99.90
5023;DHT22;2530;47.990;7.866;2023-02-08T08:43:41;-1.40;99.90
5023;DHT22;2530;47.990;7.866;2023-02-08T08:46:07;-1.40;99.90
5023;DHT22;2530;47.990;7.866;2023-02-08T08:48:34;-1.40;99.90
5023;DHT22;2530;47.990;7.866;2023-02-08T08:51:00;-1.20;99.90
5023;DHT22;2530;47.990;7.866;2023-02-08T08:53:26;-1.20;99.90
5023;DHT22;2530;47.990;7.866;2023-02-08T08:55:51;-1.10;99.90
5023;DHT22;2530;47.990;7.866;2023-02-08T08:58:17;-1.10;99.90
5023;DHT22;2530;47.990;7.866;2023-02-08T09:00:42;-1.30;99.90
5023;DHT22;2530;47.990;7.866;2023-02-08T09:03:08;-1.20;99.90
5023;DHT22;2530;47.990;7.866;2023-02-08T09:05:34;-1.00;99.90
5023;DHT22;2530;47.990;7.866;2023-02-08T09:07:59;-0.90;99.90
5023;DHT22;2530;47.990;7.866;2023-02-08T09:10:26;-0.80;99.90
5023;DHT22;2530;47.990;7.866;2023-02-08T09:12:53;-0.70;99.90
5023;DHT22;2530;47.990;7.866;2023-02-08T09:15:18;-0.80;99.90
5023;DHT22;2530;47.990;7.866;2023-02-08T09:17:44;-1.00;99.90
5023;DHT22;2530;47.990;7.866;2023-02-08T09:20:10;-0.80;99.90
5023;DHT22;2530;47.990;7.866;2023-02-08T09:22:35;-0.60;99.90
5023;DHT22;2530;47.990;7.866;2023-02-08T09:25:01;-0.70;99.00
5023;DHT22;2530;47.990;7.866;2023-02-08T09:27:27;-1.00;99.10
5023;DHT22;2530;47.990;7.866;2023-02-08T09:29:53;-0.90;99.60
5023;DHT22;2530;47.990;7.866;2023-02-08T09:32:19;-0.80;99.20
5023;DHT22;2530;47.990;7.866;2023-02-08T09:34:45;-0.70;95.40
5023;DHT22;2530;47.990;7.866;2023-02-08T09:37:11;-0.50;96.00
5023;DHT22;2530;47.990;7.866;2023-02-08T09:39:37;-0.50;94.70
5023;DHT22;2530;47.990;7.866;2023-02-08T09:47:43;-0.30;92.60
5023;DHT22;2530;47.990;7.866;2023-02-08T09:50:34;-0.20;90.50
5023;DHT22;2530;47.990;7.866;2023-02-08T09:55:37;-0.10;86.20
5023;DHT22;2530;47.990;7.866;2023-02-08T10:00:56;-0.20;82.30
5023;DHT22;2530;47.990;7.866;2023-02-08T10:05:52;0.00;87.70
5023;DHT22;2530;47.990;7.866;2023-02-08T10:08:17;-0.20;83.50
5023;DHT22;2530;47.990;7.866;2023-02-08T10:10:53;0.10;81.70
5023;DHT22;2530;47.990;7.866;2023-02-08T10:22:18;0.40;72.80
5023;DHT22;2530;47.990;7.866;2023-02-08T10:28:09;0.50;71.60
5023;DHT22;2530;47.990;7.866;2023-02-08T10:30:43;0.80;71.80
5023;DHT22;2530;47.990;7.866;2023-02-08T10:33:23;0.60;66.60
5023;DHT22;2530;47.990;7.866;2023-02-08T10:35:49;0.80;63.50
5023;DHT22;2530;47.990;7.866;2023-02-08T10:38:23;0.60;69.80
5023;DHT22;2530;47.990;7.866;2023-02-08T10:40:59;0.70;64.70
5023;DHT22;2530;47.990;7.866;2023-02-08T10:46:24;0.80;61.60
5023;DHT22;2530;47.990;7.866;2023-02-08T10:51:54;1.30;56.10
5023;DHT22;2530;47.990;7.866;2023-02-08T10:54:20;1.30;58.10
5023;DHT22;2530;47.990;7.866;2023-02-08T10:57:00;1.30;54.80
5023;DHT22;2530;47.990;7.866;2023-02-08T10:59:36;1.40;54.50
5023;DHT22;2530;47.990;7.866;2023-02-08T11:02:23;1.40;51.60
5023;DHT22;2530;47.990;7.866;2023-02-08T11:05:09;1.30;50.90
5023;DHT22;2530;47.990;7.866;2023-02-08T11:07:35;1.40;50.70
5023;DHT22;2530;47.990;7.866;2023-02-08T11:15:27;2.00;44.30
5023;DHT22;2530;47.990;7.866;2023-02-08T11:17:57;2.30;44.00
5023;DHT22;2530;47.990;7.866;2023-02-08T11:20:30;2.10;45.20
5023;DHT22;2530;47.990;7.866;2023-02-08T11:22:57;2.40;41.20
5023;DHT22;2530;47.990;7.866;2023-02-08T11:25:35;2.40;40.20
5023;DHT22;2530;47.990;7.866;2023-02-08T11:28:02;2.60;42.00
5023;DHT22;2530;47.990;7.866;2023-02-08T11:30:28;2.80;39.00
5023;DHT22;2530;47.990;7.866;2023-02-08T11:33:18;2.90;38.20
5023;DHT22;2530;47.990;7.866;2023-02-08T11:35:56;4.10;34.50
5023;DHT22;2530;47.990;7.866;2023-02-08T11:38:22;4.40;27.20
5023;DHT22;2530;47.990;7.866;2023-02-08T11:40:54;5.50;28.60
5023;DHT22;2530;47.990;7.866;2023-02-08T11:43:32;5.40;24.70
5023;DHT22;2530;47.990;7.866;2023-02-08T11:46:00;5.60;22.90
5023;DHT22;2530;47.990;7.866;2023-02-08T11:51:01;5.00;21.70
5023;DHT22;2530;47.990;7.866;2023-02-08T11:53:33;4.80;23.40
5023;DHT22;2530;47.990;7.866;2023-02-08T11:56:24;5.90;21.90
5023;DHT22;2530;47.990;7.866;2023-02-08T11:59:16;6.70;20.50
5023;DHT22;2530;47.990;7.866;2023-02-08T12:01:43;5.60;19.80
5023;DHT22;2530;47.990;7.866;2023-02-08T12:04:11;5.70;19.30
5023;DHT22;2530;47.990;7.866;2023-02-08T12:12:53;7.00;17.60
5023;DHT22;2530;47.990;7.866;2023-02-08T12:18:12;7.70;17.70
5023;DHT22;2530;47.990;7.866;2023-02-08T12:20:44;7.20;18.30
5023;DHT22;2530;47.990;7.866;2023-02-08T12:23:42;8.00;17.00
5023;DHT22;2530;47.990;7.866;2023-02-08T12:37:33;7.90;18.10
5023;DHT22;2530;47.990;7.866;2023-02-08T12:40:48;7.60;17.80
5023;DHT22;2530;47.990;7.866;2023-02-08T12:46:31;6.90;18.90
5023;DHT22;2530;47.990;7.866;2023-02-08T12:52:32;6.90;17.00
5023;DHT22;2530;47.990;7.866;2023-02-08T12:57:29;8.10;19.40
5023;DHT22;2530;47.990;7.866;2023-02-08T13:00:05;8.30;17.10
5023;DHT22;2530;47.990;7.866;2023-02-08T13:02:44;8.30;16.80
5023;DHT22;2530;47.990;7.866;2023-02-08T13:05:20;7.60;17.20
5023;DHT22;2530;47.990;7.866;2023-02-08T13:07:48;7.90;20.70
5023;DHT22;2530;47.990;7.866;2023-02-08T13:10:27;8.00;22.00
5023;DHT22;2530;47.990;7.866;2023-02-08T13:12:57;8.40;17.70
5023;DHT22;2530;47.990;7.866;2023-02-08T13:15:36;8.10;17.00
5023;DHT22;2530;47.990;7.866;2023-02-08T13:18:16;7.60;18.70
5023;DHT22;2530;47.990;7.866;2023-02-08T13:20:49;6.30;18.60
5023;DHT22;2530;47.990;7.866;2023-02-08T13:23:21;7.60;21.00
5023;DHT22;2530;47.990;7.866;2023-02-08T13:25:48;7.10;17.50
5023;DHT22;2530;47.990;7.866;2023-02-08T13:28:19;7.10;19.30
5023;DHT22;2530;47.990;7.866;2023-02-08T13:33:51;8.40;17.90
5023;DHT22;2530;47.990;7.866;2023-02-08T13:38:57;7.20;17.80
5023;DHT22;2530;47.990;7.866;2023-02-08T13:41:26;7.10;18.30
5023;DHT22;2530;47.990;7.866;2023-02-08T13:46:18;7.90;16.80
5023;DHT22;2530;47.990;7.866;2023-02-08T13:48:53;7.30;22.20
5023;DHT22;2530;47.990;7.866;2023-02-08T13:56:43;8.30;19.70
5023;DHT22;2530;47.990;7.866;2023-02-08T13:59:33;8.50;14.30
5023;DHT22;2530;47.990;7.866;2023-02-08T14:04:52;9.80;16.30
5023;DHT22;2530;47.990;7.866;2023-02-08T14:10:22;9.10;15.30
5023;DHT22;2530;47.990;7.866;2023-02-08T14:13:06;7.90;18.70
5023;DHT22;2530;47.990;7.866;2023-02-08T14:15:40;8.40;14.90
5023;DHT22;2530;47.990;7.866;2023-02-08T14:18:22;10.10;22.90
5023;DHT22;2530;47.990;7.866;2023-02-08T14:21:03;10.00;14.90
5023;DHT22;2530;47.990;7.866;2023-02-08T14:23:31;10.60;13.60
5023;DHT22;2530;47.990;7.866;2023-02-08T14:26:06;9.00;12.70
5023;DHT22;2530;47.990;7.866;2023-02-08T14:28:36;10.30;12.30
5023;DHT22;2530;47.990;7.866;2023-02-08T14:31:05;9.90;12.20
5023;DHT22;2530;47.990;7.866;2023-02-08T14:33:41;10.00;11.00
5023;DHT22;2530;47.990;7.866;2023-02-08T14:36:24;9.60;12.90
5023;DHT22;2530;47.990;7.866;2023-02-08T14:39:27;9.10;13.10
5023;DHT22;2530;47.990;7.866;2023-02-08T14:42:11;9.60;12.70
5023;DHT22;2530;47.990;7.866;2023-02-08T14:49:49;8.40;12.90
5023;DHT22;2530;47.990;7.866;2023-02-08T14:52:21;7.80;13.20
5023;DHT22;2530;47.990;7.866;2023-02-08T14:57:29;6.10;17.50
5023;DHT22;2530;47.990;7.866;2023-02-08T15:00:02;5.30;21.20
5023;DHT22;2530;47.990;7.866;2023-02-08T15:02:30;5.00;21.40
5023;DHT22;2530;47.990;7.866;2023-02-08T15:04:56;5.10;21.90
5023;DHT22;2530;47.990;7.866;2023-02-08T15:07:40;4.60;22.70
5023;DHT22;2530;47.990;7.866;2023-02-08T15:10:12;4.80;24.30
5023;DHT22;2530;47.990;7.866;2023-02-08T15:12:40;4.80;23.70
5023;DHT22;2530;47.990;7.866;2023-02-08T15:15:24;4.40;25.00
5023;DHT22;2530;47.990;7.866;2023-02-08T15:17:51;4.40;25.50
5023;DHT22;2530;47.990;7.866;2023-02-08T15:20:26;4.70;24.80
5023;DHT22;2530;47.990;7.866;2023-02-08T15:23:22;4.60;28.10
5023;DHT22;2530;47.990;7.866;2023-02-08T15:25:56;4.40;25.80
5023;DHT22;2530;47.990;7.866;2023-02-08T15:28:24;4.30;29.00
5023;DHT22;2530;47.990;7.866;2023-02-08T15:30:58;4.50;25.80
5023;DHT22;2530;47.990;7.866;2023-02-08T15:33:25;4.30;26.20
5023;DHT22;2530;47.990;7.866;2023-02-08T15:36:06;4.40;26.90
5023;DHT22;2530;47.990;7.866;2023-02-08T15:38:34;3.20;26.00
5023;DHT22;2530;47.990;7.866;2023-02-08T15:41:22;4.80;26.40
5023;DHT22;2530;47.990;7.866;2023-02-08T15:43:48;4.60;26.20
5023;DHT22;2530;47.990;7.866;2023-02-08T15:46:21;4.60;29.50
5023;DHT22;2530;47.990;7.866;2023-02-08T15:48:48;4.20;31.20
5023;DHT22;2530;47.990;7.866;2023-02-08T15:51:15;4.40;28.00
5023;DHT22;2530;47.990;7.866;2023-02-08T15:53:43;4.30;27.70
5023;DHT22;2530;47.990;7.866;2023-02-08T15:56:10;4.20;28.90
5023;DHT22;2530;47.990;7.866;2023-02-08T15:58:46;3.90;30.20
5023;DHT22;2530;47.990;7.866;2023-02-08T16:01:17;3.80;35.40
5023;DHT22;2530;47.990;7.866;2023-02-08T16:03:48;3.90;32.90
5023;DHT22;2530;47.990;7.866;2023-02-08T16:06:21;3.80;36.60
5023;DHT22;2530;47.990;7.866;2023-02-08T16:08:49;3.60;34.50
5023;DHT22;2530;47.990;7.866;2023-02-08T16:11:22;3.40;39.10
5023;DHT22;2530;47.990;7.866;2023-02-08T16:13:51;3.40;39.00
5023;DHT22;2530;47.990;7.866;2023-02-08T16:16:21;3.30;40.50
5023;DHT22;2530;47.990;7.866;2023-02-08T16:18:59;3.30;40.60
5023;DHT22;2530;47.990;7.866;2023-02-08T16:23:53;2.80;46.70
5023;DHT22;2530;47.990;7.866;2023-02-08T16:28:54;2.70;50.50
5023;DHT22;2530;47.990;7.866;2023-02-08T16:31:24;2.70;50.90
5023;DHT22;2530;47.990;7.866;2023-02-08T16:36:30;2.50;54.40
5023;DHT22;2530;47.990;7.866;2023-02-08T16:39:19;2.30;59.00
5023;DHT22;2530;47.990;7.866;2023-02-08T16:44:29;2.20;63.70
5023;DHT22;2530;47.990;7.866;2023-02-08T16:46:55;2.20;69.60
5023;DHT22;2530;47.990;7.866;2023-02-08T16:49:21;2.10;74.70
5023;DHT22;2530;47.990;7.866;2023-02-08T16:51:47;1.70;87.30
5023;DHT22;2530;47.990;7.866;2023-02-08T16:54:14;1.80;92.40
5023;DHT22;2530;47.990;7.866;2023-02-08T16:56:42;1.60;93.00
5023;DHT22;2530;47.990;7.866;2023-02-08T16:59:11;1.60;98.00
5023;DHT22;2530;47.990;7.866;2023-02-08T17:01:37;1.50;94.50
5023;DHT22;2530;47.990;7.866;2023-02-08T17:04:03;1.40;95.40
5023;DHT22;2530;47.990;7.866;2023-02-08T17:06:31;1.40;96.50
5023;DHT22;2530;47.990;7.866;2023-02-08T17:08:58;1.50;98.40
5023;DHT22;2530;47.990;7.866;2023-02-08T17:11:24;1.70;97.20
5023;DHT22;2530;47.990;7.866;2023-02-08T17:13:49;1.40;95.60
5023;DHT22;2530;47.990;7.866;2023-02-08T17:16:18;1.40;95.90
5023;DHT22;2530;47.990;7.866;2023-02-08T17:18:45;1.30;99.90
5023;DHT22;2530;47.990;7.866;2023-02-08T17:21:11;1.30;99.90
5023;DHT22;2530;47.990;7.866;2023-02-08T17:23:37;0.90;99.90
5023;DHT22;2530;47.990;7.866;2023-02-08T17:28:39;0.80;99.90
5023;DHT22;2530;47.990;7.866;2023-02-08T17:31:04;0.60;99.90
5023;DHT22;2530;47.990;7.866;2023-02-08T17:33:30;1.10;99.90
5023;DHT22;2530;47.990;7.866;2023-02-08T17:36:00;0.90;99.90
5023;DHT22;2530;47.990;7.866;2023-02-08T17:38:26;0.60;99.90
5023;DHT22;2530;47.990;7.866;2023-02-08T17:40:52;0.60;99.90
5023;DHT22;2530;47.990;7.866;2023-02-08T17:43:18;2.30;99.90
5023;DHT22;2530;47.990;7.866;2023-02-08T17:45:44;0.80;99.90
5023;DHT22;2530;47.990;7.866;2023-02-08T17:48:10;0.80;99.90
5023;DHT22;2530;47.990;7.866;2023-02-08T17:50:40;0.80;99.90
5023;DHT22;2530;47.990;7.866;2023-02-08T17:53:06;0.50;99.90
5023;DHT22;2530;47.990;7.866;2023-02-08T17:55:32;0.40;99.90
5023;DHT22;2530;47.990;7.866;2023-02-08T17:57:58;0.70;99.90
5023;DHT22;2530;47.990;7.866;2023-02-08T18:00:24;0.50;99.90
5023;DHT22;2530;47.990;7.866;2023-02-08T18:02:53;0.20;99.90
5023;DHT22;2530;47.990;7.866;2023-02-08T18:05:23;0.30;99.90
5023;DHT22;2530;47.990;7.866;2023-02-08T18:07:50;0.30;99.90
5023;DHT22;2530;47.990;7.866;2023-02-08T18:10:16;0.70;99.90
5023;DHT22;2530;47.990;7.866;2023-02-08T18:12:41;0.20;99.90
5023;DHT22;2530;47.990;7.866;2023-02-08T18:15:10;0.90;99.90
5023;DHT22;2530;47.990;7.866;2023-02-08T18:17:36;0.60;99.90
5023;DHT22;2530;47.990;7.866;2023-02-08T18:20:03;0.50;99.90
5023;DHT22;2530;47.990;7.866;2023-02-08T18:22:28;0.30;99.90
5023;DHT22;2530;47.990;7.866;2023-02-08T18:24:54;0.30;99.90
5023;DHT22;2530;47.990;7.866;2023-02-08T18:27:21;0.20;99.90
5023;DHT22;2530;47.990;7.866;2023-02-08T18:29:46;0.00;99.90
5023;DHT22;2530;47.990;7.866;2023-02-08T18:32:12;0.20;99.90
5023;DHT22;2530;47.990;7.866;2023-02-08T18:34:38;0.20;99.90
5023;DHT22;2530;47.990;7.866;2023-02-08T18:37:07;0.10;99.90
5023;DHT22;2530;47.990;7.866;2023-02-08T18:39:33;0.30;99.90
5023;DHT22;2530;47.990;7.866;2023-02-08T18:41:58;-0.10;99.90
5023;DHT22;2530;47.990;7.866;2023-02-08T18:44:24;0.10;99.90
5023;DHT22;2530;47.990;7.866;2023-02-08T18:46:49;-0.20;99.90
5023;DHT22;2530;47.990;7.866;2023-02-08T18:49:15;0.50;99.90
5023;DHT22;2530;47.990;7.866;2023-02-08T18:51:42;0.30;99.90
5023;DHT22;2530;47.990;7.866;2023-02-08T18:54:13;-0.10;99.90
5023;DHT22;2530;47.990;7.866;2023-02-08T18:56:40;0.00;99.90